^^
Datos históricos de la estación: Murcia-Puente Tocinos
Diario Informe para Septiembre 22, 2021 Unidades:  Ingés    Métrico   Ambas
Diario Semanal Mensual Anual
  Máxima: Mínima: Promedio:
Temperatura: 79.2 °F 65.8 °F 72.5 °F
Punto de rocio: 64.9 °F 57.7 °F 60.6 °F
Humedad: 88.7% 48.2% 68%
Velocidad viento: 7.6mph 0mph 4.3mph
Racha viento: 14mph - -
Viento- - Sur
Presión: 30.1 in 29.9 in -
Precipitación: 0 in    
 
 
Tabla de datos para Septiembre 22, 2021
Hora Temperatura Punto de rocio Presión Viento Velocidad viento Racha viento Humedad Intensidad lluvia(por hora) Nubes
00:04 67.3 °F 63.3 °F 30.1 in Oeste 4.3 mph 7.4 mph 87% 0.01 in
00:09 66.9 °F 63 °F 30.1 in Oeste 4.4 mph 7.6 mph 87% 0.01 in
00:14 66.7 °F 63.1 °F 30.1 in Oeste 4.7 mph 8.1 mph 88% 0.01 in
00:19 66.9 °F 63.1 °F 30.1 in OSO 4.7 mph 8.1 mph 88% 0.01 in
00:24 66.9 °F 63.1 °F 30.1 in Oeste 4.7 mph 9.2 mph 88% 0.01 in
00:29 66.9 °F 63.1 °F 30.1 in Oeste 5.2 mph 11.8 mph 88% 0.01 in
00:34 66.9 °F 63.1 °F 30.1 in Oeste 6.2 mph 9.7 mph 88% 0.01 in
00:39 66.9 °F 63.1 °F 30.1 in Oeste 5.9 mph 9.2 mph 88% 0.01 in
00:44 66.7 °F 63.1 °F 30.1 in Oeste 5.2 mph 6.9 mph 88% 0.01 in
00:49 66.7 °F 63.1 °F 30.1 in Oeste 5 mph 8.1 mph 88% 0.01 in
00:54 66.6 °F 63 °F 30.1 in Oeste 4.3 mph 6.9 mph 88% 0.01 in
00:59 66.6 °F 63 °F 30.1 in Oeste 3.9 mph 5.2 mph 88% 0 in
01:04 66.6 °F 63 °F 30.1 in SSE 3.1 mph 3.6 mph 88% 0 in
01:09 66.6 °F 63 °F 30.1 in SSE 2.7 mph 3.5 mph 88% 0 in
01:14 66.6 °F 63 °F 30.1 in SSE 1.8 mph 5.9 mph 88% 0 in
01:19 66.6 °F 63 °F 30.1 in SSE 2.2 mph 6.2 mph 88% 0 in
01:24 66.7 °F 63.1 °F 30.1 in SSE 2.9 mph 5.2 mph 88% 0 in
01:29 66.6 °F 63 °F 30.1 in SSO 3.1 mph 5.2 mph 88% 0 in
01:34 66.6 °F 63 °F 30.1 in SSO 3.6 mph 5.8 mph 88% 0 in
01:39 66.6 °F 63 °F 30.1 in SSO 3.7 mph 5.8 mph 88.3% 0 in
01:44 66.7 °F 63.3 °F 30.1 in SSO 4 mph 5.2 mph 88.7% 0 in
01:49 66.7 °F 63.1 °F 30.1 in SO 3.7 mph 4.7 mph 88% 0 in
01:54 66.7 °F 63.1 °F 30.1 in OSO 3.1 mph 5.2 mph 88% 0 in
01:59 66.7 °F 62.8 °F 30.1 in OSO 3.1 mph 5.2 mph 87.3% 0 in
02:04 66.7 °F 62.8 °F 30.1 in OSO 3.1 mph 4 mph 87% 0 in
02:09 66.9 °F 62.6 °F 30.1 in OSO 2.9 mph 5.4 mph 86.1% 0 in
02:14 66.9 °F 62.6 °F 30.1 in SO 2.4 mph 5.8 mph 86% 0 in
02:19 67.1 °F 62.6 °F 30.1 in SO 2.6 mph 5.2 mph 85.6% 0 in
02:24 67.3 °F 62.6 °F 30.1 in SO 3.1 mph 4.6 mph 85% 0 in
02:29 67.3 °F 62.6 °F 30.1 in OSO 3 mph 4.7 mph 85% 0 in
02:34 67.5 °F 62.8 °F 30.1 in SO 2.9 mph 6.2 mph 85% 0 in
02:39 67.3 °F 62.4 °F 30.1 in SO 3.2 mph 8.1 mph 84.4% 0 in
02:44 67.3 °F 62.4 °F 30.1 in SO 4 mph 5.8 mph 84.4% 0 in
02:49 67.3 °F 62.2 °F 30.1 in OSO 3.9 mph 6.9 mph 84.1% 0 in
02:54 67.1 °F 61.9 °F 30.1 in OSO 3.6 mph 6.9 mph 83.4% 0 in
02:59 67.1 °F 61.5 °F 30.1 in SO 3.9 mph 7.4 mph 82.5% 0 in
03:04 66.9 °F 61.2 °F 30.1 in SO 4.3 mph 8.1 mph 81.5% 0 in
03:09 66.9 °F 61 °F 30.1 in OSO 4.2 mph 7.4 mph 81% 0 in
03:14 67.1 °F 61.2 °F 30.1 in OSO 4 mph 6.9 mph 81.1% 0 in
03:19 67.3 °F 61.5 °F 30.1 in SO 4 mph 6.2 mph 81.9% 0 in
03:24 67.3 °F 61.2 °F 30.1 in OSO 4 mph 5.9 mph 81% 0 in
03:29 67.3 °F 61.3 °F 30.1 in SO 3.9 mph 5.8 mph 81.5% 0 in
03:34 67.3 °F 61.7 °F 30.1 in SO 3.6 mph 7.4 mph 82% 0 in
03:39 67.3 °F 61.5 °F 30 in SO 3.6 mph 6.9 mph 82% 0 in
03:44 67.3 °F 61.5 °F 30 in SO 3.6 mph 6.4 mph 82% 0 in
03:49 67.1 °F 61.5 °F 30 in SSO 3.6 mph 6.9 mph 82% 0 in
03:54 67.1 °F 61.3 °F 30 in SO 3.6 mph 5.4 mph 82% 0 in
03:59 67.1 °F 61.3 °F 30 in SO 3.4 mph 6.2 mph 82% 0 in
04:04 66.9 °F 61.3 °F 30 in SSO 3.1 mph 5.9 mph 82% 0 in
04:09 66.9 °F 61.2 °F 30 in SSO 3.4 mph 6.9 mph 81.7% 0 in
04:14 66.9 °F 61 °F 30 in SO 4 mph 6.9 mph 81% 0 in
04:19 66.9 °F 60.6 °F 30 in OSO 4.1 mph 6.9 mph 80.4% 0 in
04:24 66.9 °F 60.4 °F 30 in OSO 4.3 mph 6.9 mph 79.9% 0 in
04:29 66.9 °F 60.3 °F 30 in OSO 4.2 mph 5.9 mph 79.1% 0 in
04:34 66.9 °F 60.3 °F 30 in OSO 4 mph 6.9 mph 79% 0 in
04:39 66.9 °F 60.3 °F 30 in OSO 4.1 mph 8.1 mph 79% 0 in
04:44 66.9 °F 60.4 °F 30 in OSO 4.3 mph 8.5 mph 79.8% 0 in
04:49 66.9 °F 60.4 °F 30 in OSO 4.4 mph 8.1 mph 80% 0 in
04:54 66.9 °F 60.4 °F 30 in SO 4.7 mph 9.2 mph 79.6% 0 in
04:59 66.9 °F 60.4 °F 30 in SO 5 mph 6.9 mph 79.9% 0 in
05:04 66.9 °F 60.4 °F 30 in SSO 5.4 mph 6.9 mph 80% 0 in
05:09 66.9 °F 60.4 °F 30 in SO 5 mph 6.9 mph 80% 0 in
05:14 66.7 °F 60.4 °F 30 in SO 4.3 mph 6.9 mph 80% 0 in
05:19 66.7 °F 60.4 °F 30 in SO 4.1 mph 8.1 mph 80% 0 in
05:24 66.7 °F 60.3 °F 30 in SO 3.6 mph 8.1 mph 79.4% 0 in
05:29 66.7 °F 60.1 °F 30 in OSO 4.1 mph 8.5 mph 79% 0 in
05:34 66.7 °F 60.1 °F 30 in OSO 5.2 mph 7.6 mph 79% 0 in
05:39 66.7 °F 60.3 °F 30 in OSO 4.8 mph 8.1 mph 79.4% 0 in
05:44 66.7 °F 60.4 °F 30 in OSO 4 mph 6.9 mph 80% 0 in
05:49 66.6 °F 60.3 °F 30 in OSO 4.1 mph 7.4 mph 80% 0 in
05:54 66.6 °F 60.3 °F 30 in OSO 4.3 mph 8.1 mph 80% 0 in
05:59 66.6 °F 60.3 °F 30 in OSO 4.6 mph 8.1 mph 80% 0 in
06:04 66.6 °F 60.3 °F 30 in OSO 5.2 mph 6.9 mph 80% 0 in
06:05 66.6 °F 60.3 °F 30 in SO 5.2 mph 5.9 mph 80% 0 in
06:14 66.4 °F 60.1 °F 30 in SSO 4 mph 6.9 mph 80% 0 in
06:19 66.4 °F 59.9 °F 30 in SO 4 mph 7.4 mph 80% 0 in
06:24 66.2 °F 59.7 °F 30 in SO 4 mph 8.1 mph 80% 0 in
06:29 66.2 °F 59.7 °F 30 in SO 4.3 mph 8.1 mph 80% 0 in
06:34 66.2 °F 59.7 °F 30 in SO 5.2 mph 6.9 mph 80% 0 in
06:39 66.4 °F 59.9 °F 30 in SSO 4.9 mph 6.9 mph 80% 0 in
06:44 66.4 °F 60.1 °F 30 in SSO 4.3 mph 6.9 mph 80% 0 in
06:49 66.6 °F 60.4 °F 30 in SO 4.3 mph 5.8 mph 80.9% 0 in
06:54 66.6 °F 60.4 °F 30 in SO 4.3 mph 6.9 mph 81% 0 in
06:59 66.4 °F 60.4 °F 30 in SSO 4 mph 6.2 mph 81% 0 in
07:04 66.4 °F 60.4 °F 30 in SO 3.6 mph 5.9 mph 81% 0 in
07:09 66.4 °F 60.4 °F 30 in SO 3.6 mph 5.9 mph 81% 0 in
07:14 66.2 °F 60.3 °F 30 in SO 3.6 mph 6.2 mph 81% 0 in
07:19 66.2 °F 60.4 °F 30 in SO 3.7 mph 5.8 mph 81.7% 0 in
07:24 66 °F 60.1 °F 30 in SO 4 mph 5.8 mph 81.1% 0 in
07:29 66 °F 60.1 °F 30 in SO 3.9 mph 5.8 mph 81% 0 in
07:34 66 °F 60.1 °F 30 in SO 3.6 mph 5.2 mph 81% 0 in
07:39 66 °F 60.1 °F 30 in SO 3.4 mph 5.2 mph 81% 0 in
07:44 66 °F 60.1 °F 30 in SO 3.1 mph 5.2 mph 81% 0 in
07:49 66 °F 60.1 °F 30 in SSO 3.2 mph 6.9 mph 81% 0 in
07:54 65.8 °F 59.9 °F 30 in SO 3.6 mph 6.9 mph 81% 0 in
07:59 65.8 °F 59.7 °F 30 in SO 3.6 mph 5.9 mph 81% 0 in
08:04 65.8 °F 60.1 °F 30 in SSO 3.6 mph 5.2 mph 81.9% 0 in
08:09 65.8 °F 59.7 °F 30 in SSO 3.4 mph 5.2 mph 81% 0 in
08:14 65.8 °F 59.7 °F 30 in Sur 3.1 mph 5.9 mph 81% 0 in
08:19 65.8 °F 59.7 °F 30 in SSO 3.3 mph 5.8 mph 81% 0 in
08:24 65.8 °F 59.9 °F 30 in Sur 3.6 mph 5.9 mph 81% 0 in
08:29 66 °F 59.9 °F 30 in Sur 3.7 mph 6.9 mph 81% 0 in
08:34 66 °F 60.1 °F 30 in SSO 4 mph 6.2 mph 81% 0 in
08:39 66.2 °F 60.3 °F 30 in SO 4 mph 8.5 mph 81% 0 in
08:44 66.6 °F 60.1 °F 30 in SO 4 mph 9.2 mph 79.8% 0 in
08:49 66.7 °F 59.9 °F 30 in SSO 4.3 mph 8.5 mph 78.6% 0 in
08:54 66.9 °F 59.7 °F 30 in SO 5.2 mph 6.9 mph 78% 0 in
11:29 72.9 °F 59.2 °F 30 in Oeste 4.8 mph 9.2 mph 62.2% 0 in
11:34 73 °F 59.2 °F 30 in OSO 4.3 mph 7.4 mph 61.9% 0 in
11:39 73.6 °F 58.8 °F 30 in Oeste 4.1 mph 8.5 mph 60.3% 0 in
11:44 73.4 °F 59 °F 30 in SO 3.6 mph 8.5 mph 60.6% 0 in
11:49 73.6 °F 59.2 °F 30 in OSO 3.7 mph 5.9 mph 60.8% 0 in
11:54 73.9 °F 59.2 °F 30 in SSO 4 mph 10.2 mph 60.2% 0 in
11:59 74.3 °F 59.4 °F 30 in Oeste 4.2 mph 10.4 mph 59.5% 0 in
12:04 74.5 °F 59 °F 30 in OSO 4.7 mph 9.2 mph 58.4% 0 in
12:09 74.7 °F 59 °F 30 in NO 4.7 mph 9.2 mph 58% 0 in
12:14 75.4 °F 58.8 °F 30 in NNE 4.7 mph 7.4 mph 56.6% 0 in
12:19 75.6 °F 57.7 °F 30 in NNO 4.3 mph 6.9 mph 54.1% 0 in
12:24 76.1 °F 58.1 °F 30 in NNE 3.6 mph 8.1 mph 53.7% 0 in
12:29 76.1 °F 57.9 °F 30 in NNE 3.7 mph 7.4 mph 53.4% 0 in
12:34 76.5 °F 58.3 °F 30 in NNE 4 mph 7.4 mph 53.2% 0 in
12:39 76.8 °F 58.3 °F 30 in NE 3.9 mph 8.5 mph 52.8% 0 in
12:44 76.8 °F 57.9 °F 30 in North 3.6 mph 9.2 mph 52% 0 in
12:49 76.8 °F 58.1 °F 30 in NNO 3.7 mph 6.2 mph 52.1% 0 in
12:54 77.4 °F 58.3 °F 30 in ENE 4 mph 9.2 mph 51.9% 0 in
12:59 77.4 °F 58.5 °F 30 in Este 4 mph 6.2 mph 52% 0 in
13:04 77.4 °F 58.1 °F 30 in NE 4 mph 10.4 mph 51.4% 0 in
13:09 77 °F 57.9 °F 30 in NE 4.3 mph 9.7 mph 52% 0 in
13:14 76.5 °F 57.7 °F 30 in ENE 5.2 mph 10.4 mph 52.4% 0 in
13:19 76.5 °F 58.1 °F 30 in Este 5.2 mph 8.5 mph 53% 0 in
13:24 77 °F 58.5 °F 30 in NNE 5.2 mph 6.9 mph 52.7% 0 in
13:29 77.5 °F 58.5 °F 30 in ENE 4.8 mph 9.7 mph 51.9% 0 in
13:34 77.7 °F 58.3 °F 30 in Este 4 mph 8.1 mph 51.3% 0 in
13:39 77.9 °F 58.3 °F 30 in SE 4.1 mph 5.2 mph 50.9% 0 in
13:44 78.1 °F 58.5 °F 30 in ENE 4.3 mph 5.9 mph 51% 0 in
13:49 78.4 °F 58.8 °F 30 in NNE 4.1 mph 6.9 mph 51.2% 0 in
13:54 78.6 °F 58.5 °F 30 in NO 3.6 mph 8.1 mph 50% 0 in
13:59 79 °F 58.6 °F 30 in NNE 3.4 mph 8.1 mph 49.7% 0 in
14:04 79 °F 58.3 °F 30 in ENE 2.9 mph 8.1 mph 49.1% 0 in
14:09 78.6 °F 58.1 °F 30 in NNE 2.9 mph 4.6 mph 49.2% 0 in
14:14 78.6 °F 58.1 °F 30 in NNO 2.9 mph 9.2 mph 49.6% 0 in
14:19 78.4 °F 58.3 °F 30 in NO 3 mph 5.8 mph 50% 0 in
14:24 78.4 °F 58.5 °F 30 in NNO 3.1 mph 8.5 mph 50.2% 0 in
14:29 78.4 °F 58.6 °F 30 in North 3.5 mph 9.2 mph 50.7% 0 in
14:34 78.4 °F 58.5 °F 30 in NNE 4.7 mph 8.1 mph 50.4% 0 in
14:39 78.4 °F 58.5 °F 30 in NNO 4.6 mph 8.5 mph 50.4% 0 in
14:44 78.4 °F 58.5 °F 30 in North 4.3 mph 8.5 mph 50.2% 0 in
14:49 78.4 °F 58.5 °F 30 in NO 4.2 mph 5.9 mph 50.2% 0 in
14:54 79 °F 58.3 °F 30 in North 4 mph 9.2 mph 49.3% 0 in
14:59 79 °F 58.5 °F 30 in NNE 4.1 mph 8.7 mph 49.3% 0 in
15:04 79 °F 58.1 °F 30 in NE 4.3 mph 9.2 mph 48.9% 0 in
15:09 79 °F 58.3 °F 30 in NE 4.6 mph 8.1 mph 49% 0 in
15:14 79 °F 58.5 °F 30 in NNE 5.2 mph 10.2 mph 49.3% 0 in
15:19 79.2 °F 58.1 °F 30 in NNE 5.5 mph 12.7 mph 48.7% 0 in
15:24 79 °F 58.1 °F 30 in NNE 6.2 mph 11.5 mph 49% 0 in
15:29 79 °F 58.3 °F 30 in NNE 6.2 mph 9.7 mph 49% 0 in
15:34 79 °F 57.7 °F 30 in NNE 6.2 mph 8.1 mph 48.2% 0 in
15:39 79.2 °F 58.1 °F 30 in NE 5.6 mph 8.1 mph 48.6% 0 in
15:44 79.2 °F 58.6 °F 30 in NNE 4.3 mph 9.7 mph 49.3% 0 in
15:49 79.2 °F 59.5 °F 30 in NE 4.8 mph 12.7 mph 51.3% 0 in
15:54 79 °F 59.9 °F 30 in NE 5.9 mph 10.7 mph 52% 0 in
15:59 79 °F 59.9 °F 30 in NE 5.7 mph 10.4 mph 51.9% 0 in
16:04 79 °F 59.9 °F 30 in NE 5.4 mph 9.7 mph 52.1% 0 in
16:09 79 °F 59.7 °F 30 in ENE 5.3 mph 9.2 mph 51.6% 0 in
16:14 79 °F 59.4 °F 30 in NE 5.2 mph 11.5 mph 51.2% 0 in
16:19 79 °F 59 °F 30 in NE 5.4 mph 11.5 mph 50.3% 0 in
16:24 79 °F 58.8 °F 30 in NE 5.9 mph 9.2 mph 50.2% 0 in
16:29 79 °F 58.8 °F 30 in NE 6.2 mph 14 mph 50.2% 0 in
16:34 78.8 °F 58.5 °F 30 in NE 6.9 mph 11.5 mph 49.8% 0 in
16:39 78.8 °F 58.3 °F 30 in NE 6.9 mph 11.5 mph 49.3% 0 in
16:44 79 °F 58.3 °F 30 in NE 6.9 mph 11.5 mph 49.1% 0 in
16:49 79 °F 58.3 °F 30 in NE 6.5 mph 10.4 mph 49% 0 in
16:54 79 °F 58.5 °F 30 in ENE 5.4 mph 11.5 mph 49.4% 0 in
16:59 79 °F 58.8 °F 30 in NE 5.7 mph 9.2 mph 50.2% 0 in
17:04 79 °F 58.8 °F 30 in ENE 6.2 mph 11.4 mph 50.1% 0 in
17:09 78.8 °F 58.6 °F 30 in NE 6.2 mph 11.8 mph 50% 0 in
17:14 78.6 °F 58.6 °F 30 in NE 6.2 mph 9.7 mph 50.3% 0 in
17:19 78.6 °F 58.5 °F 30 in NE 6.1 mph 10.7 mph 50% 0 in
17:24 78.4 °F 58.5 °F 30 in NE 5.9 mph 9.7 mph 50.3% 0 in
17:29 78.4 °F 58.8 °F 29.9 in NE 6 mph 10.2 mph 50.9% 0 in
17:34 78.4 °F 58.8 °F 29.9 in NE 6.2 mph 13.8 mph 51% 0 in
17:39 78.3 °F 59.2 °F 29.9 in NNE 6.6 mph 11.5 mph 52.1% 0 in
17:44 78.3 °F 59.7 °F 29.9 in NNE 7.6 mph 8.5 mph 53% 0 in
17:49 78.3 °F 59.7 °F 29.9 in NNE 7.1 mph 10.7 mph 52.9% 0 in
17:54 78.1 °F 59.5 °F 29.9 in NNE 5.9 mph 9.2 mph 53% 0 in
17:59 78.1 °F 59.5 °F 29.9 in NNE 5.7 mph 8.1 mph 53% 0 in
18:04 78.1 °F 59.7 °F 29.9 in NE 5.2 mph 9.2 mph 53.2% 0 in
18:09 78.1 °F 59.5 °F 29.9 in NNE 5.2 mph 9.2 mph 53% 0 in
18:14 78.1 °F 59.9 °F 29.9 in NNE 5.2 mph 8.1 mph 53.6% 0 in
18:19 78.1 °F 60.1 °F 29.9 in NE 5.2 mph 6.9 mph 54% 0 in
18:24 78.1 °F 60.1 °F 29.9 in NE 5.2 mph 9.2 mph 54% 0 in
18:29 78.1 °F 60.1 °F 29.9 in NE 5 mph 9.2 mph 53.9% 0 in
18:34 78.1 °F 60.1 °F 29.9 in NE 4.7 mph 6.9 mph 53.9% 0 in
18:39 78.1 °F 60.1 °F 29.9 in ENE 4.6 mph 6.9 mph 53.8% 0 in
18:44 78.1 °F 60.1 °F 29.9 in ENE 4.3 mph 8.5 mph 54% 0 in
18:49 78.1 °F 60.1 °F 29.9 in NE 4.2 mph 6.2 mph 54% 0 in
18:54 78.1 °F 60.1 °F 29.9 in NE 4 mph 6.9 mph 54% 0 in
18:59 78.1 °F 60.1 °F 29.9 in NE 4 mph 9.7 mph 54% 0 in
19:04 78.1 °F 60.1 °F 29.9 in NE 4 mph 9.2 mph 54% 0 in
19:09 78.1 °F 60.1 °F 29.9 in NNE 4.5 mph 11.8 mph 54.1% 0 in
19:14 78.1 °F 60.6 °F 29.9 in NE 5.9 mph 9.7 mph 55% 0 in
19:19 77.9 °F 60.4 °F 29.9 in NE 6 mph 9.7 mph 55% 0 in
19:24 77.9 °F 61 °F 29.9 in NE 6.4 mph 10.7 mph 56% 0 in
19:29 77.9 °F 61 °F 29.9 in NE 6.3 mph 11.5 mph 56% 0 in
19:34 77.9 °F 61 °F 29.9 in NE 6.2 mph 10.4 mph 56% 0 in
19:39 77.7 °F 61 °F 29.9 in NE 6.2 mph 11.5 mph 56.5% 0 in
19:44 77.7 °F 61.5 °F 29.9 in NE 6.2 mph 10.7 mph 57.5% 0 in
19:49 77.5 °F 62.2 °F 29.9 in Este 6.2 mph 13 mph 59.3% 0 in
19:54 77.2 °F 62.6 °F 29.9 in ENE 6.2 mph 12.7 mph 60.9% 0 in
19:59 76.6 °F 62.8 °F 29.9 in ENE 6.5 mph 11.8 mph 62.1% 0 in
20:04 76.5 °F 63 °F 29.9 in NE 6.9 mph 11.5 mph 63.1% 0 in
20:09 76.3 °F 63.3 °F 29.9 in ENE 6.8 mph 13.8 mph 64.2% 0 in
20:14 75.9 °F 63.5 °F 29.9 in ENE 6.4 mph 13 mph 65.3% 0 in
20:19 75.7 °F 63.9 °F 29.9 in NE 6.6 mph 12.7 mph 66.7% 0 in
20:24 75.6 °F 64.2 °F 29.9 in NE 6.9 mph 11.8 mph 67.7% 0 in
20:29 75.6 °F 64.4 °F 29.9 in NE 6.5 mph 6.9 mph 68.4% 0 in
20:34 75.4 °F 64.6 °F 29.9 in ENE 5.4 mph 8.5 mph 69% 0 in
20:39 75.4 °F 64.6 °F 30 in ENE 5 mph 8.1 mph 69.3% 0 in
20:44 75.2 °F 64.8 °F 30 in ENE 4 mph 6.2 mph 70% 0 in
20:49 75 °F 64.6 °F 30 in NE 3.9 mph 5.9 mph 70% 0 in
20:54 74.8 °F 64.8 °F 30 in NE 3.6 mph 6.2 mph 70.7% 0 in
20:59 74.8 °F 64.8 °F 30 in ENE 3.7 mph 6.9 mph 71% 0 in
21:04 74.7 °F 64.6 °F 30 in NE 4 mph 8.1 mph 71% 0 in
21:09 74.7 °F 64.9 °F 30 in NE 4.1 mph 5.9 mph 71.9% 0 in
21:14 74.5 °F 64.9 °F 30 in North 4.3 mph 5.9 mph 72% 0 in
21:19 74.5 °F 64.9 °F 30 in NNO 3.9 mph 4.6 mph 72% 0 in
21:24 74.5 °F 64.9 °F 30 in NNO 3.1 mph 4.3 mph 72% 0 in
21:29 74.3 °F 63.3 °F 30 in NO 2.9 mph 7.4 mph 68.8% 0 in
21:34 73.9 °F 61.5 °F 30 in NO 2.4 mph 9.2 mph 65.1% 0 in
21:39 73.9 °F 61 °F 30 in NO 3.1 mph 9.2 mph 64% 0 in
21:44 73.9 °F 61 °F 30 in ONO 4.7 mph 10 mph 64% 0 in
21:49 73.8 °F 60.8 °F 30 in NO 4.9 mph 10.4 mph 64% 0 in
21:54 73.8 °F 60.8 °F 30 in ONO 5.4 mph 8.1 mph 64% 0 in
21:59 73.8 °F 61 °F 30 in ONO 5 mph 6.9 mph 64.2% 0 in
22:04 73.8 °F 61.2 °F 30 in NO 4.3 mph 9.7 mph 65% 0 in
22:09 73.6 °F 61 °F 30 in NO 4.6 mph 9.7 mph 64.9% 0 in
22:14 73.6 °F 61.2 °F 30 in NO 5.2 mph 8.1 mph 65% 0 in
22:19 73.4 °F 61 °F 30 in NO 5.2 mph 8.7 mph 65% 0 in
22:24 73.2 °F 60.8 °F 30 in NO 5.2 mph 9.2 mph 65% 0 in
22:29 73.2 °F 60.6 °F 30 in NO 4.9 mph 8.5 mph 65% 0 in
22:34 73.2 °F 60.6 °F 30 in NO 4.3 mph 6.9 mph 65% 0 in
22:39 73 °F 60.6 °F 30 in NNO 4.3 mph 7.4 mph 65% 0 in
22:44 73 °F 60.6 °F 30 in NNO 4.3 mph 5.4 mph 65% 0 in
22:49 72.9 °F 60.4 °F 30 in NO 3.9 mph 5.8 mph 65% 0 in
22:54 72.9 °F 60.4 °F 30 in NO 2.9 mph 5.2 mph 65% 0 in
22:59 72.9 °F 60.4 °F 30 in ONO 2.5 mph 4.6 mph 65.3% 0 in
23:04 72.9 °F 60.8 °F 30 in ONO 1.8 mph 5.4 mph 66% 0 in
23:09 72.9 °F 60.6 °F 30 in NO 1.9 mph 5.8 mph 65.7% 0 in
23:14 72.9 °F 60.8 °F 30 in NO 2 mph 6.4 mph 65.9% 0 in
23:19 72.7 °F 60.6 °F 30 in NO 2.3 mph 6.9 mph 66% 0 in
23:24 72.7 °F 60.6 °F 30 in NO 3.1 mph 5.2 mph 66% 0 in
23:29 72.5 °F 60.6 °F 30 in NO 2.9 mph 3.6 mph 66% 0 in
23:34 72.3 °F 60.4 °F 30 in NNE 2.4 mph 3.6 mph 66% 0 in
23:39 72.3 °F 60.6 °F 30 in NNE 2.2 mph 2.4 mph 66.9% 0 in
23:44 72.1 °F 60.6 °F 30 in NNE 1.8 mph   67% 0 in
23:49 72.1 °F 60.6 °F 30 in NNE 1.2 mph 4.6 mph 67% 0 in
23:54 72.1 °F 60.6 °F 30 in Calm   4.7 mph 67% 0 in
23:59 72.1 °F 60.6 °F 30 in OSO 1 mph 4.6 mph 67% 0 in
Murcia-Puente Tocinos, España
Compliments of Weather Underground - 2.5 mb

La estación de MeteoMurcia.com, publica sus datos en los siguientes proyectos:

Weather Underground PWS IMURCIAP2 Meteoclimatic www.awekas.at

W3Counter
Web Analytics